sensor_id;sensor_type;location;lat;lon;timestamp;temperature;humidity
14172;DHT22;7165;52.388;4.928;2022-12-26T00:00:08;9.90;99.90
14172;DHT22;7165;52.388;4.928;2022-12-26T00:02:36;9.90;99.90
14172;DHT22;7165;52.388;4.928;2022-12-26T00:05:03;10.00;99.90
14172;DHT22;7165;52.388;4.928;2022-12-26T00:07:31;9.90;99.90
14172;DHT22;7165;52.388;4.928;2022-12-26T00:09:58;10.00;99.90
14172;DHT22;7165;52.388;4.928;2022-12-26T00:12:24;10.00;99.90
14172;DHT22;7165;52.388;4.928;2022-12-26T00:14:51;10.00;99.90
14172;DHT22;7165;52.388;4.928;2022-12-26T00:17:18;10.00;99.90
14172;DHT22;7165;52.388;4.928;2022-12-26T00:19:45;10.00;99.90
14172;DHT22;7165;52.388;4.928;2022-12-26T00:22:11;10.00;99.90
14172;DHT22;7165;52.388;4.928;2022-12-26T00:24:41;10.00;99.90
14172;DHT22;7165;52.388;4.928;2022-12-26T00:27:08;10.00;99.90
14172;DHT22;7165;52.388;4.928;2022-12-26T00:29:34;10.00;99.90
14172;DHT22;7165;52.388;4.928;2022-12-26T00:32:01;10.00;99.90
14172;DHT22;7165;52.388;4.928;2022-12-26T00:34:28;10.00;99.90
14172;DHT22;7165;52.388;4.928;2022-12-26T00:36:55;10.00;99.90
14172;DHT22;7165;52.388;4.928;2022-12-26T00:39:21;10.00;99.90
14172;DHT22;7165;52.388;4.928;2022-12-26T00:41:49;10.00;99.90
14172;DHT22;7165;52.388;4.928;2022-12-26T00:44:16;10.00;99.90
14172;DHT22;7165;52.388;4.928;2022-12-26T00:46:43;10.00;99.90
14172;DHT22;7165;52.388;4.928;2022-12-26T00:49:09;10.00;99.90
14172;DHT22;7165;52.388;4.928;2022-12-26T00:51:36;10.00;99.90
14172;DHT22;7165;52.388;4.928;2022-12-26T00:54:03;10.00;99.90
14172;DHT22;7165;52.388;4.928;2022-12-26T00:56:29;10.00;99.90
14172;DHT22;7165;52.388;4.928;2022-12-26T00:58:57;10.00;99.90
14172;DHT22;7165;52.388;4.928;2022-12-26T01:01:24;10.00;99.90
14172;DHT22;7165;52.388;4.928;2022-12-26T01:03:55;10.00;99.90
14172;DHT22;7165;52.388;4.928;2022-12-26T01:06:22;10.00;99.90
14172;DHT22;7165;52.388;4.928;2022-12-26T01:08:49;10.00;99.90
14172;DHT22;7165;52.388;4.928;2022-12-26T01:11:16;10.00;99.90
14172;DHT22;7165;52.388;4.928;2022-12-26T01:14:06;10.00;99.90
14172;DHT22;7165;52.388;4.928;2022-12-26T01:16:34;10.00;99.90
14172;DHT22;7165;52.388;4.928;2022-12-26T01:19:02;10.00;99.90
14172;DHT22;7165;52.388;4.928;2022-12-26T01:21:29;10.00;99.90
14172;DHT22;7165;52.388;4.928;2022-12-26T01:23:55;10.00;99.90
14172;DHT22;7165;52.388;4.928;2022-12-26T01:26:22;9.90;99.90
14172;DHT22;7165;52.388;4.928;2022-12-26T01:28:50;10.00;99.90
14172;DHT22;7165;52.388;4.928;2022-12-26T01:31:19;9.90;99.90
14172;DHT22;7165;52.388;4.928;2022-12-26T01:33:46;10.00;99.90
14172;DHT22;7165;52.388;4.928;2022-12-26T01:36:13;10.00;99.90
14172;DHT22;7165;52.388;4.928;2022-12-26T01:38:41;10.00;99.90
14172;DHT22;7165;52.388;4.928;2022-12-26T01:41:07;10.00;99.90
14172;DHT22;7165;52.388;4.928;2022-12-26T01:43:56;10.00;99.90
14172;DHT22;7165;52.388;4.928;2022-12-26T01:46:33;9.90;99.90
14172;DHT22;7165;52.388;4.928;2022-12-26T01:49:06;9.90;99.90
14172;DHT22;7165;52.388;4.928;2022-12-26T01:51:37;10.00;99.90
14172;DHT22;7165;52.388;4.928;2022-12-26T01:54:07;9.90;99.90
14172;DHT22;7165;52.388;4.928;2022-12-26T01:56:37;9.90;99.90
14172;DHT22;7165;52.388;4.928;2022-12-26T01:59:07;9.90;99.90
14172;DHT22;7165;52.388;4.928;2022-12-26T02:01:38;10.00;99.90
14172;DHT22;7165;52.388;4.928;2022-12-26T02:04:08;9.90;99.90
14172;DHT22;7165;52.388;4.928;2022-12-26T02:06:53;9.90;99.90
14172;DHT22;7165;52.388;4.928;2022-12-26T02:09:20;9.90;99.90
14172;DHT22;7165;52.388;4.928;2022-12-26T02:11:49;9.90;99.90
14172;DHT22;7165;52.388;4.928;2022-12-26T02:14:17;9.90;99.90
14172;DHT22;7165;52.388;4.928;2022-12-26T02:16:45;9.90;99.90
14172;DHT22;7165;52.388;4.928;2022-12-26T02:19:22;9.90;99.90
14172;DHT22;7165;52.388;4.928;2022-12-26T02:22:20;9.90;99.90
14172;DHT22;7165;52.388;4.928;2022-12-26T02:25:27;9.90;99.90
14172;DHT22;7165;52.388;4.928;2022-12-26T02:28:20;9.80;99.90
14172;DHT22;7165;52.388;4.928;2022-12-26T02:30:57;9.80;99.90
14172;DHT22;7165;52.388;4.928;2022-12-26T02:33:38;9.80;99.90
14172;DHT22;7165;52.388;4.928;2022-12-26T02:39:10;9.70;99.90
14172;DHT22;7165;52.388;4.928;2022-12-26T02:41:46;9.60;99.90
14172;DHT22;7165;52.388;4.928;2022-12-26T02:44:20;9.60;99.90
14172;DHT22;7165;52.388;4.928;2022-12-26T02:47:24;9.60;99.90
14172;DHT22;7165;52.388;4.928;2022-12-26T02:50:01;9.50;99.90
14172;DHT22;7165;52.388;4.928;2022-12-26T02:52:57;9.50;99.90
14172;DHT22;7165;52.388;4.928;2022-12-26T02:55:46;9.50;99.90
14172;DHT22;7165;52.388;4.928;2022-12-26T02:58:37;9.50;99.90
14172;DHT22;7165;52.388;4.928;2022-12-26T03:01:32;9.40;99.90
14172;DHT22;7165;52.388;4.928;2022-12-26T03:04:21;9.40;99.90
14172;DHT22;7165;52.388;4.928;2022-12-26T03:07:13;9.40;99.90
14172;DHT22;7165;52.388;4.928;2022-12-26T03:10:01;9.40;99.90
14172;DHT22;7165;52.388;4.928;2022-12-26T03:12:49;9.40;99.90
14172;DHT22;7165;52.388;4.928;2022-12-26T03:15:38;9.40;99.90
14172;DHT22;7165;52.388;4.928;2022-12-26T03:18:22;9.40;99.90
14172;DHT22;7165;52.388;4.928;2022-12-26T03:20:51;9.40;99.90
14172;DHT22;7165;52.388;4.928;2022-12-26T03:23:19;9.40;99.90
14172;DHT22;7165;52.388;4.928;2022-12-26T03:25:50;9.40;99.90
14172;DHT22;7165;52.388;4.928;2022-12-26T03:28:36;9.40;99.90
14172;DHT22;7165;52.388;4.928;2022-12-26T03:31:05;9.40;99.90
14172;DHT22;7165;52.388;4.928;2022-12-26T03:33:33;9.40;99.90
14172;DHT22;7165;52.388;4.928;2022-12-26T03:36:28;9.30;99.90
14172;DHT22;7165;52.388;4.928;2022-12-26T03:39:04;9.30;99.90
14172;DHT22;7165;52.388;4.928;2022-12-26T03:41:39;9.30;99.90
14172;DHT22;7165;52.388;4.928;2022-12-26T03:44:33;9.30;99.90
14172;DHT22;7165;52.388;4.928;2022-12-26T03:47:24;9.30;99.90
14172;DHT22;7165;52.388;4.928;2022-12-26T03:50:17;9.30;99.90
14172;DHT22;7165;52.388;4.928;2022-12-26T03:53:11;9.30;99.90
14172;DHT22;7165;52.388;4.928;2022-12-26T03:56:01;9.30;99.90
14172;DHT22;7165;52.388;4.928;2022-12-26T03:58:53;9.30;99.90
14172;DHT22;7165;52.388;4.928;2022-12-26T04:01:40;9.30;99.90
14172;DHT22;7165;52.388;4.928;2022-12-26T04:04:26;9.30;99.90
14172;DHT22;7165;52.388;4.928;2022-12-26T04:07:16;9.40;99.90
14172;DHT22;7165;52.388;4.928;2022-12-26T04:10:07;9.40;99.90
14172;DHT22;7165;52.388;4.928;2022-12-26T04:12:55;9.40;99.90
14172;DHT22;7165;52.388;4.928;2022-12-26T04:15:44;9.50;99.90
14172;DHT22;7165;52.388;4.928;2022-12-26T04:18:33;9.50;99.90
14172;DHT22;7165;52.388;4.928;2022-12-26T04:21:24;9.50;99.90
14172;DHT22;7165;52.388;4.928;2022-12-26T04:24:14;9.50;99.90
14172;DHT22;7165;52.388;4.928;2022-12-26T04:27:06;9.50;99.90
14172;DHT22;7165;52.388;4.928;2022-12-26T04:29:51;9.50;99.90
14172;DHT22;7165;52.388;4.928;2022-12-26T04:32:39;9.60;99.90
14172;DHT22;7165;52.388;4.928;2022-12-26T04:35:30;9.50;99.90
14172;DHT22;7165;52.388;4.928;2022-12-26T04:38:21;9.50;99.90
14172;DHT22;7165;52.388;4.928;2022-12-26T04:41:08;9.50;99.90
14172;DHT22;7165;52.388;4.928;2022-12-26T04:43:56;9.50;99.90
14172;DHT22;7165;52.388;4.928;2022-12-26T04:46:32;9.50;99.90
14172;DHT22;7165;52.388;4.928;2022-12-26T04:49:03;9.50;99.90
14172;DHT22;7165;52.388;4.928;2022-12-26T04:51:48;9.40;99.90
14172;DHT22;7165;52.388;4.928;2022-12-26T04:54:16;9.40;99.90
14172;DHT22;7165;52.388;4.928;2022-12-26T04:56:43;9.40;99.90
14172;DHT22;7165;52.388;4.928;2022-12-26T04:59:11;9.40;99.90
14172;DHT22;7165;52.388;4.928;2022-12-26T05:01:37;9.30;99.90
14172;DHT22;7165;52.388;4.928;2022-12-26T05:04:22;9.30;99.90
14172;DHT22;7165;52.388;4.928;2022-12-26T05:07:11;9.30;99.90
14172;DHT22;7165;52.388;4.928;2022-12-26T05:09:58;9.30;99.90
14172;DHT22;7165;52.388;4.928;2022-12-26T05:12:24;9.30;99.90
14172;DHT22;7165;52.388;4.928;2022-12-26T05:14:53;9.30;99.90
14172;DHT22;7165;52.388;4.928;2022-12-26T05:17:19;9.30;99.90
14172;DHT22;7165;52.388;4.928;2022-12-26T05:20:04;9.30;99.90
14172;DHT22;7165;52.388;4.928;2022-12-26T05:22:49;9.30;99.90
14172;DHT22;7165;52.388;4.928;2022-12-26T05:25:39;9.30;99.90
14172;DHT22;7165;52.388;4.928;2022-12-26T05:28:24;9.30;99.90
14172;DHT22;7165;52.388;4.928;2022-12-26T05:31:13;9.30;99.90
14172;DHT22;7165;52.388;4.928;2022-12-26T05:33:40;9.30;99.90
14172;DHT22;7165;52.388;4.928;2022-12-26T05:36:28;9.40;99.90
14172;DHT22;7165;52.388;4.928;2022-12-26T05:38:55;9.30;99.90
14172;DHT22;7165;52.388;4.928;2022-12-26T05:41:21;9.30;99.90
14172;DHT22;7165;52.388;4.928;2022-12-26T05:43:48;9.30;99.90
14172;DHT22;7165;52.388;4.928;2022-12-26T05:46:16;9.30;99.90
14172;DHT22;7165;52.388;4.928;2022-12-26T05:48:43;9.20;99.90
14172;DHT22;7165;52.388;4.928;2022-12-26T05:51:10;9.20;99.90
14172;DHT22;7165;52.388;4.928;2022-12-26T05:53:37;9.20;99.90
14172;DHT22;7165;52.388;4.928;2022-12-26T05:56:04;9.20;99.90
14172;DHT22;7165;52.388;4.928;2022-12-26T05:58:32;9.30;99.90
14172;DHT22;7165;52.388;4.928;2022-12-26T06:01:04;9.20;99.90
14172;DHT22;7165;52.388;4.928;2022-12-26T06:03:32;9.20;99.90
14172;DHT22;7165;52.388;4.928;2022-12-26T06:05:59;9.20;99.90
14172;DHT22;7165;52.388;4.928;2022-12-26T06:08:26;9.20;99.90
14172;DHT22;7165;52.388;4.928;2022-12-26T06:10:53;9.30;99.90
14172;DHT22;7165;52.388;4.928;2022-12-26T06:13:20;9.30;99.90
14172;DHT22;7165;52.388;4.928;2022-12-26T06:15:46;9.30;99.90
14172;DHT22;7165;52.388;4.928;2022-12-26T06:18:13;9.30;99.90
14172;DHT22;7165;52.388;4.928;2022-12-26T06:20:41;9.20;99.90
14172;DHT22;7165;52.388;4.928;2022-12-26T06:23:08;9.20;99.90
14172;DHT22;7165;52.388;4.928;2022-12-26T06:25:34;9.20;99.90
14172;DHT22;7165;52.388;4.928;2022-12-26T06:28:01;9.20;99.90
14172;DHT22;7165;52.388;4.928;2022-12-26T06:30:28;9.20;99.90
14172;DHT22;7165;52.388;4.928;2022-12-26T06:32:55;9.20;99.90
14172;DHT22;7165;52.388;4.928;2022-12-26T06:35:21;9.30;99.90
14172;DHT22;7165;52.388;4.928;2022-12-26T06:37:49;9.30;99.90
14172;DHT22;7165;52.388;4.928;2022-12-26T06:40:16;9.40;99.90
14172;DHT22;7165;52.388;4.928;2022-12-26T06:42:43;9.50;99.90
14172;DHT22;7165;52.388;4.928;2022-12-26T06:45:10;9.50;99.90
14172;DHT22;7165;52.388;4.928;2022-12-26T06:47:37;9.60;99.90
14172;DHT22;7165;52.388;4.928;2022-12-26T06:50:04;9.60;99.90
14172;DHT22;7165;52.388;4.928;2022-12-26T06:52:31;9.70;99.90
14172;DHT22;7165;52.388;4.928;2022-12-26T06:54:59;9.70;99.90
14172;DHT22;7165;52.388;4.928;2022-12-26T06:57:25;9.70;99.90
14172;DHT22;7165;52.388;4.928;2022-12-26T06:59:52;9.70;99.90
14172;DHT22;7165;52.388;4.928;2022-12-26T07:02:19;9.80;99.90
14172;DHT22;7165;52.388;4.928;2022-12-26T07:04:45;9.80;99.90
14172;DHT22;7165;52.388;4.928;2022-12-26T07:07:12;9.80;99.90
14172;DHT22;7165;52.388;4.928;2022-12-26T07:09:39;9.80;99.90
14172;DHT22;7165;52.388;4.928;2022-12-26T07:12:07;9.80;99.90
14172;DHT22;7165;52.388;4.928;2022-12-26T07:14:33;9.80;99.90
14172;DHT22;7165;52.388;4.928;2022-12-26T07:17:01;9.80;99.90
14172;DHT22;7165;52.388;4.928;2022-12-26T07:19:28;9.80;99.90
14172;DHT22;7165;52.388;4.928;2022-12-26T07:21:55;9.80;99.90
14172;DHT22;7165;52.388;4.928;2022-12-26T07:24:21;9.80;99.90
14172;DHT22;7165;52.388;4.928;2022-12-26T07:26:48;9.80;99.90
14172;DHT22;7165;52.388;4.928;2022-12-26T07:29:17;9.80;99.90
14172;DHT22;7165;52.388;4.928;2022-12-26T07:31:43;9.90;99.90
14172;DHT22;7165;52.388;4.928;2022-12-26T07:34:10;9.90;99.90
14172;DHT22;7165;52.388;4.928;2022-12-26T07:36:38;10.00;99.90
14172;DHT22;7165;52.388;4.928;2022-12-26T07:39:05;10.00;99.90
14172;DHT22;7165;52.388;4.928;2022-12-26T07:41:32;10.00;99.90
14172;DHT22;7165;52.388;4.928;2022-12-26T07:44:17;10.00;99.90
14172;DHT22;7165;52.388;4.928;2022-12-26T07:46:44;10.00;99.90
14172;DHT22;7165;52.388;4.928;2022-12-26T07:49:12;10.00;99.90
14172;DHT22;7165;52.388;4.928;2022-12-26T07:51:39;10.10;99.90
14172;DHT22;7165;52.388;4.928;2022-12-26T07:54:06;10.10;99.90
14172;DHT22;7165;52.388;4.928;2022-12-26T07:56:33;10.10;99.90
14172;DHT22;7165;52.388;4.928;2022-12-26T07:59:00;10.10;99.90
14172;DHT22;7165;52.388;4.928;2022-12-26T08:01:28;10.20;99.90
14172;DHT22;7165;52.388;4.928;2022-12-26T08:03:54;10.10;99.90
14172;DHT22;7165;52.388;4.928;2022-12-26T08:06:21;10.10;99.90
14172;DHT22;7165;52.388;4.928;2022-12-26T08:08:49;10.10;99.90
14172;DHT22;7165;52.388;4.928;2022-12-26T08:11:18;10.10;99.90
14172;DHT22;7165;52.388;4.928;2022-12-26T08:13:45;10.00;99.90
14172;DHT22;7165;52.388;4.928;2022-12-26T08:16:13;10.00;99.90
14172;DHT22;7165;52.388;4.928;2022-12-26T08:18:41;10.00;99.90
14172;DHT22;7165;52.388;4.928;2022-12-26T08:21:09;10.00;99.90
14172;DHT22;7165;52.388;4.928;2022-12-26T08:23:36;9.90;99.90
14172;DHT22;7165;52.388;4.928;2022-12-26T08:26:04;9.90;99.90
14172;DHT22;7165;52.388;4.928;2022-12-26T08:28:30;9.90;99.90
14172;DHT22;7165;52.388;4.928;2022-12-26T08:30:57;9.90;99.90
14172;DHT22;7165;52.388;4.928;2022-12-26T08:33:24;9.90;99.90
14172;DHT22;7165;52.388;4.928;2022-12-26T08:35:52;10.00;99.90
14172;DHT22;7165;52.388;4.928;2022-12-26T08:38:19;10.00;99.90
14172;DHT22;7165;52.388;4.928;2022-12-26T08:40:52;10.00;99.90
14172;DHT22;7165;52.388;4.928;2022-12-26T08:43:20;10.00;99.90
14172;DHT22;7165;52.388;4.928;2022-12-26T08:45:55;10.00;99.90
14172;DHT22;7165;52.388;4.928;2022-12-26T08:48:21;10.00;99.90
14172;DHT22;7165;52.388;4.928;2022-12-26T08:50:54;10.00;99.90
14172;DHT22;7165;52.388;4.928;2022-12-26T08:53:21;10.00;99.90
14172;DHT22;7165;52.388;4.928;2022-12-26T08:55:48;9.80;99.90
14172;DHT22;7165;52.388;4.928;2022-12-26T08:58:15;9.50;99.90
14172;DHT22;7165;52.388;4.928;2022-12-26T09:00:41;9.40;99.90
14172;DHT22;7165;52.388;4.928;2022-12-26T09:03:08;9.20;99.90
14172;DHT22;7165;52.388;4.928;2022-12-26T09:05:35;9.00;99.90
14172;DHT22;7165;52.388;4.928;2022-12-26T09:08:03;8.80;99.90
14172;DHT22;7165;52.388;4.928;2022-12-26T09:10:30;8.70;99.90
14172;DHT22;7165;52.388;4.928;2022-12-26T09:12:57;8.60;99.90
14172;DHT22;7165;52.388;4.928;2022-12-26T09:15:24;8.50;99.90
14172;DHT22;7165;52.388;4.928;2022-12-26T09:17:50;8.40;99.90
14172;DHT22;7165;52.388;4.928;2022-12-26T09:20:17;8.40;99.90
14172;DHT22;7165;52.388;4.928;2022-12-26T09:22:44;8.30;99.90
14172;DHT22;7165;52.388;4.928;2022-12-26T09:25:19;8.20;99.90
14172;DHT22;7165;52.388;4.928;2022-12-26T09:27:46;8.10;99.90
14172;DHT22;7165;52.388;4.928;2022-12-26T09:30:14;8.10;99.90
14172;DHT22;7165;52.388;4.928;2022-12-26T09:32:41;8.10;99.90
14172;DHT22;7165;52.388;4.928;2022-12-26T09:35:08;8.00;99.90
14172;DHT22;7165;52.388;4.928;2022-12-26T09:37:34;8.00;99.90
14172;DHT22;7165;52.388;4.928;2022-12-26T09:40:01;8.00;99.90
14172;DHT22;7165;52.388;4.928;2022-12-26T09:42:35;8.00;99.90
14172;DHT22;7165;52.388;4.928;2022-12-26T09:45:10;8.00;99.90
14172;DHT22;7165;52.388;4.928;2022-12-26T09:47:44;8.10;99.90
14172;DHT22;7165;52.388;4.928;2022-12-26T09:50:19;8.10;99.90
14172;DHT22;7165;52.388;4.928;2022-12-26T09:52:53;8.10;99.90
14172;DHT22;7165;52.388;4.928;2022-12-26T09:55:29;8.10;99.90
14172;DHT22;7165;52.388;4.928;2022-12-26T09:58:05;8.10;99.90
14172;DHT22;7165;52.388;4.928;2022-12-26T10:00:38;8.10;99.90
14172;DHT22;7165;52.388;4.928;2022-12-26T10:03:10;8.20;99.90
14172;DHT22;7165;52.388;4.928;2022-12-26T10:05:40;8.20;99.90
14172;DHT22;7165;52.388;4.928;2022-12-26T10:08:21;8.20;99.90
14172;DHT22;7165;52.388;4.928;2022-12-26T10:10:57;8.20;99.90
14172;DHT22;7165;52.388;4.928;2022-12-26T10:13:31;8.20;99.90
14172;DHT22;7165;52.388;4.928;2022-12-26T10:16:03;8.20;99.90
14172;DHT22;7165;52.388;4.928;2022-12-26T10:18:38;8.20;99.90
14172;DHT22;7165;52.388;4.928;2022-12-26T10:21:15;8.20;99.90
14172;DHT22;7165;52.388;4.928;2022-12-26T10:23:49;8.20;99.90
14172;DHT22;7165;52.388;4.928;2022-12-26T10:26:20;8.20;99.90
14172;DHT22;7165;52.388;4.928;2022-12-26T10:28:53;8.30;99.90
14172;DHT22;7165;52.388;4.928;2022-12-26T10:31:25;8.30;99.90
14172;DHT22;7165;52.388;4.928;2022-12-26T10:33:57;8.30;99.90
14172;DHT22;7165;52.388;4.928;2022-12-26T10:36:30;8.30;99.90
14172;DHT22;7165;52.388;4.928;2022-12-26T10:38:58;8.30;99.90
14172;DHT22;7165;52.388;4.928;2022-12-26T10:41:30;8.30;99.90
14172;DHT22;7165;52.388;4.928;2022-12-26T10:43:59;8.40;99.90
14172;DHT22;7165;52.388;4.928;2022-12-26T10:46:40;8.50;99.90
14172;DHT22;7165;52.388;4.928;2022-12-26T10:49:12;8.60;99.90
14172;DHT22;7165;52.388;4.928;2022-12-26T10:51:40;8.50;99.90
14172;DHT22;7165;52.388;4.928;2022-12-26T10:54:12;8.50;99.90
14172;DHT22;7165;52.388;4.928;2022-12-26T10:56:41;8.40;99.90
14172;DHT22;7165;52.388;4.928;2022-12-26T10:59:14;8.40;99.90
14172;DHT22;7165;52.388;4.928;2022-12-26T11:01:42;8.40;99.90
14172;DHT22;7165;52.388;4.928;2022-12-26T11:04:17;8.40;99.90
14172;DHT22;7165;52.388;4.928;2022-12-26T11:06:45;8.40;99.90
14172;DHT22;7165;52.388;4.928;2022-12-26T11:09:37;8.30;99.90
14172;DHT22;7165;52.388;4.928;2022-12-26T11:12:05;8.30;99.90
14172;DHT22;7165;52.388;4.928;2022-12-26T11:14:36;8.20;99.90
14172;DHT22;7165;52.388;4.928;2022-12-26T11:17:05;8.30;99.90
14172;DHT22;7165;52.388;4.928;2022-12-26T11:19:34;8.20;99.90
14172;DHT22;7165;52.388;4.928;2022-12-26T11:22:14;8.20;99.90
14172;DHT22;7165;52.388;4.928;2022-12-26T11:24:45;8.20;99.90
14172;DHT22;7165;52.388;4.928;2022-12-26T11:27:28;8.20;99.90
14172;DHT22;7165;52.388;4.928;2022-12-26T11:30:14;8.20;99.90
14172;DHT22;7165;52.388;4.928;2022-12-26T11:32:42;8.30;99.90
14172;DHT22;7165;52.388;4.928;2022-12-26T11:35:16;8.40;99.90
14172;DHT22;7165;52.388;4.928;2022-12-26T11:37:44;8.50;99.90
14172;DHT22;7165;52.388;4.928;2022-12-26T11:40:16;8.50;99.90
14172;DHT22;7165;52.388;4.928;2022-12-26T11:42:48;8.60;99.90
14172;DHT22;7165;52.388;4.928;2022-12-26T11:45:20;8.60;99.90
14172;DHT22;7165;52.388;4.928;2022-12-26T11:47:48;8.70;99.90
14172;DHT22;7165;52.388;4.928;2022-12-26T11:50:16;8.60;99.90
14172;DHT22;7165;52.388;4.928;2022-12-26T11:52:50;8.70;99.90
14172;DHT22;7165;52.388;4.928;2022-12-26T11:55:30;8.70;99.90
14172;DHT22;7165;52.388;4.928;2022-12-26T11:58:00;8.60;99.90
14172;DHT22;7165;52.388;4.928;2022-12-26T12:00:33;8.70;99.90
14172;DHT22;7165;52.388;4.928;2022-12-26T12:03:00;8.70;99.90
14172;DHT22;7165;52.388;4.928;2022-12-26T12:05:41;8.60;99.90
14172;DHT22;7165;52.388;4.928;2022-12-26T12:08:27;8.70;99.90
14172;DHT22;7165;52.388;4.928;2022-12-26T12:11:11;8.70;99.90
14172;DHT22;7165;52.388;4.928;2022-12-26T12:13:51;8.50;99.90
14172;DHT22;7165;52.388;4.928;2022-12-26T12:16:33;8.50;99.90
14172;DHT22;7165;52.388;4.928;2022-12-26T12:19:11;8.50;99.90
14172;DHT22;7165;52.388;4.928;2022-12-26T12:21:43;8.50;99.90
14172;DHT22;7165;52.388;4.928;2022-12-26T12:24:31;8.60;99.90
14172;DHT22;7165;52.388;4.928;2022-12-26T12:27:04;8.60;99.90
14172;DHT22;7165;52.388;4.928;2022-12-26T12:29:46;8.60;99.90
14172;DHT22;7165;52.388;4.928;2022-12-26T12:32:21;8.70;99.90
14172;DHT22;7165;52.388;4.928;2022-12-26T12:35:05;8.80;99.90
14172;DHT22;7165;52.388;4.928;2022-12-26T12:37:45;8.80;99.90
14172;DHT22;7165;52.388;4.928;2022-12-26T12:40:24;8.70;99.90
14172;DHT22;7165;52.388;4.928;2022-12-26T12:43:01;8.60;99.90
14172;DHT22;7165;52.388;4.928;2022-12-26T12:45:33;8.40;99.90
14172;DHT22;7165;52.388;4.928;2022-12-26T12:48:24;8.40;99.90
14172;DHT22;7165;52.388;4.928;2022-12-26T12:51:03;8.30;99.90
14172;DHT22;7165;52.388;4.928;2022-12-26T12:53:48;8.20;99.90
14172;DHT22;7165;52.388;4.928;2022-12-26T12:56:26;8.10;99.90
14172;DHT22;7165;52.388;4.928;2022-12-26T12:59:03;8.10;99.90
14172;DHT22;7165;52.388;4.928;2022-12-26T13:01:37;8.10;99.90
14172;DHT22;7165;52.388;4.928;2022-12-26T13:04:10;8.10;99.90
14172;DHT22;7165;52.388;4.928;2022-12-26T13:06:41;8.10;99.90
14172;DHT22;7165;52.388;4.928;2022-12-26T13:09:13;8.20;99.90
14172;DHT22;7165;52.388;4.928;2022-12-26T13:11:45;8.30;99.90
14172;DHT22;7165;52.388;4.928;2022-12-26T13:14:16;8.50;99.90
14172;DHT22;7165;52.388;4.928;2022-12-26T13:16:47;8.50;99.90
14172;DHT22;7165;52.388;4.928;2022-12-26T13:19:19;8.50;99.90
14172;DHT22;7165;52.388;4.928;2022-12-26T13:21:48;8.50;99.90
14172;DHT22;7165;52.388;4.928;2022-12-26T13:24:19;8.50;99.90
14172;DHT22;7165;52.388;4.928;2022-12-26T13:26:55;8.50;99.90
14172;DHT22;7165;52.388;4.928;2022-12-26T13:29:33;8.50;99.90
14172;DHT22;7165;52.388;4.928;2022-12-26T13:32:01;8.50;99.90
14172;DHT22;7165;52.388;4.928;2022-12-26T13:34:33;8.50;99.90
14172;DHT22;7165;52.388;4.928;2022-12-26T13:37:00;8.50;99.90
14172;DHT22;7165;52.388;4.928;2022-12-26T13:39:36;8.50;99.90
14172;DHT22;7165;52.388;4.928;2022-12-26T13:42:30;8.50;99.90
14172;DHT22;7165;52.388;4.928;2022-12-26T13:45:48;8.40;99.90
14172;DHT22;7165;52.388;4.928;2022-12-26T13:48:53;8.40;99.90
14172;DHT22;7165;52.388;4.928;2022-12-26T13:51:47;8.40;99.90
14172;DHT22;7165;52.388;4.928;2022-12-26T13:54:15;8.40;99.90
14172;DHT22;7165;52.388;4.928;2022-12-26T13:59:58;8.30;99.90
14172;DHT22;7165;52.388;4.928;2022-12-26T14:03:08;8.20;99.90
14172;DHT22;7165;52.388;4.928;2022-12-26T14:05:40;8.10;99.90
14172;DHT22;7165;52.388;4.928;2022-12-26T14:08:18;8.10;99.90
14172;DHT22;7165;52.388;4.928;2022-12-26T14:10:55;8.10;99.90
14172;DHT22;7165;52.388;4.928;2022-12-26T14:13:35;8.10;99.90
14172;DHT22;7165;52.388;4.928;2022-12-26T14:16:08;8.10;99.90
14172;DHT22;7165;52.388;4.928;2022-12-26T14:18:46;8.00;99.90
14172;DHT22;7165;52.388;4.928;2022-12-26T14:21:33;8.00;99.90
14172;DHT22;7165;52.388;4.928;2022-12-26T14:24:14;8.00;99.90
14172;DHT22;7165;52.388;4.928;2022-12-26T14:26:47;8.00;99.90
14172;DHT22;7165;52.388;4.928;2022-12-26T14:29:31;8.00;99.90
14172;DHT22;7165;52.388;4.928;2022-12-26T14:32:12;7.90;99.90
14172;DHT22;7165;52.388;4.928;2022-12-26T14:34:59;7.90;99.90
14172;DHT22;7165;52.388;4.928;2022-12-26T14:37:36;8.00;99.90
14172;DHT22;7165;52.388;4.928;2022-12-26T14:40:21;7.90;99.90
14172;DHT22;7165;52.388;4.928;2022-12-26T14:43:13;7.80;99.90
14172;DHT22;7165;52.388;4.928;2022-12-26T14:45:49;7.80;99.90
14172;DHT22;7165;52.388;4.928;2022-12-26T14:48:48;7.70;99.90
14172;DHT22;7165;52.388;4.928;2022-12-26T14:51:28;7.70;99.90
14172;DHT22;7165;52.388;4.928;2022-12-26T14:57:41;7.70;99.90
14172;DHT22;7165;52.388;4.928;2022-12-26T15:00:29;7.70;99.90
14172;DHT22;7165;52.388;4.928;2022-12-26T15:03:28;7.70;99.90
14172;DHT22;7165;52.388;4.928;2022-12-26T15:06:25;7.60;99.90
14172;DHT22;7165;52.388;4.928;2022-12-26T15:09:15;7.60;99.90
14172;DHT22;7165;52.388;4.928;2022-12-26T15:12:12;7.50;99.90
14172;DHT22;7165;52.388;4.928;2022-12-26T15:15:02;7.50;99.90
14172;DHT22;7165;52.388;4.928;2022-12-26T15:17:31;7.50;99.90
14172;DHT22;7165;52.388;4.928;2022-12-26T15:20:10;7.50;99.90
14172;DHT22;7165;52.388;4.928;2022-12-26T15:22:46;7.40;99.90
14172;DHT22;7165;52.388;4.928;2022-12-26T15:28:30;7.30;99.90
14172;DHT22;7165;52.388;4.928;2022-12-26T15:31:41;7.30;99.90
14172;DHT22;7165;52.388;4.928;2022-12-26T15:34:31;7.20;99.90
14172;DHT22;7165;52.388;4.928;2022-12-26T15:37:07;7.20;99.90
14172;DHT22;7165;52.388;4.928;2022-12-26T15:39:43;7.20;99.90
14172;DHT22;7165;52.388;4.928;2022-12-26T15:42:24;7.10;99.90
14172;DHT22;7165;52.388;4.928;2022-12-26T15:45:02;7.10;99.90
14172;DHT22;7165;52.388;4.928;2022-12-26T15:47:36;7.10;99.90
14172;DHT22;7165;52.388;4.928;2022-12-26T15:50:15;7.00;99.90
14172;DHT22;7165;52.388;4.928;2022-12-26T15:52:50;7.00;99.90
14172;DHT22;7165;52.388;4.928;2022-12-26T15:55:38;7.00;99.90
14172;DHT22;7165;52.388;4.928;2022-12-26T15:58:17;6.90;99.90
14172;DHT22;7165;52.388;4.928;2022-12-26T16:00:51;6.90;99.90
14172;DHT22;7165;52.388;4.928;2022-12-26T16:03:28;6.90;99.90
14172;DHT22;7165;52.388;4.928;2022-12-26T16:06:04;6.90;99.90
14172;DHT22;7165;52.388;4.928;2022-12-26T16:08:53;6.80;99.90
14172;DHT22;7165;52.388;4.928;2022-12-26T16:11:28;6.80;99.90
14172;DHT22;7165;52.388;4.928;2022-12-26T16:13:57;6.80;99.90
14172;DHT22;7165;52.388;4.928;2022-12-26T16:16:31;6.80;99.90
14172;DHT22;7165;52.388;4.928;2022-12-26T16:19:13;6.70;99.90
14172;DHT22;7165;52.388;4.928;2022-12-26T16:21:43;6.70;99.90
14172;DHT22;7165;52.388;4.928;2022-12-26T16:24:28;6.70;99.90
14172;DHT22;7165;52.388;4.928;2022-12-26T16:26:59;6.70;99.90
14172;DHT22;7165;52.388;4.928;2022-12-26T16:29:27;6.60;99.90
14172;DHT22;7165;52.388;4.928;2022-12-26T16:32:01;6.60;99.90
14172;DHT22;7165;52.388;4.928;2022-12-26T16:34:32;6.60;99.90
14172;DHT22;7165;52.388;4.928;2022-12-26T16:36:59;6.60;99.90
14172;DHT22;7165;52.388;4.928;2022-12-26T16:39:27;6.60;99.90
14172;DHT22;7165;52.388;4.928;2022-12-26T16:42:01;6.60;99.90
14172;DHT22;7165;52.388;4.928;2022-12-26T16:44:40;6.60;99.90
14172;DHT22;7165;52.388;4.928;2022-12-26T16:47:10;6.60;99.90
14172;DHT22;7165;52.388;4.928;2022-12-26T16:49:40;6.60;99.90
14172;DHT22;7165;52.388;4.928;2022-12-26T16:52:29;6.60;99.90
14172;DHT22;7165;52.388;4.928;2022-12-26T16:54:56;6.50;99.90
14172;DHT22;7165;52.388;4.928;2022-12-26T16:57:23;6.50;99.90
14172;DHT22;7165;52.388;4.928;2022-12-26T16:59:51;6.50;99.90